sensor_id;sensor_type;location;lat;lon;timestamp;pressure;altitude;pressure_sealevel;temperature;humidity
40490;BME280;26196;52.302;10.572;2023-04-23T00:03:05;99751.28;;;20.15;43.46
40490;BME280;26196;52.302;10.572;2023-04-23T00:07:34;99756.84;;;20.11;43.36
40490;BME280;26196;52.302;10.572;2023-04-23T00:11:35;99758.78;;;20.09;43.36
40490;BME280;26196;52.302;10.572;2023-04-23T00:15:36;99755.16;;;20.10;43.39
40490;BME280;26196;52.302;10.572;2023-04-23T00:19:39;99747.31;;;20.09;43.61
40490;BME280;26196;52.302;10.572;2023-04-23T00:24:17;99744.91;;;20.06;43.61
40490;BME280;26196;52.302;10.572;2023-04-23T00:28:17;99747.56;;;20.06;43.60
40490;BME280;26196;52.302;10.572;2023-04-23T00:32:17;99750.94;;;20.08;43.61
40490;BME280;26196;52.302;10.572;2023-04-23T00:36:18;99743.91;;;20.07;43.74
40490;BME280;26196;52.302;10.572;2023-04-23T00:40:19;99743.22;;;20.05;43.93
40490;BME280;26196;52.302;10.572;2023-04-23T00:44:19;99746.72;;;20.05;43.71
40490;BME280;26196;52.302;10.572;2023-04-23T00:48:21;99734.63;;;20.01;43.76
40490;BME280;26196;52.302;10.572;2023-04-23T00:52:21;99745.00;;;20.04;43.83
40490;BME280;26196;52.302;10.572;2023-04-23T00:56:59;99743.34;;;20.03;43.81
40490;BME280;26196;52.302;10.572;2023-04-23T01:00:59;99739.09;;;20.01;43.97
40490;BME280;26196;52.302;10.572;2023-04-23T01:05:03;99740.09;;;20.00;43.83
40490;BME280;26196;52.302;10.572;2023-04-23T01:09:04;99740.91;;;20.00;43.92
40490;BME280;26196;52.302;10.572;2023-04-23T01:13:05;99734.88;;;19.98;43.97
40490;BME280;26196;52.302;10.572;2023-04-23T01:17:05;99732.22;;;19.98;43.79
40490;BME280;26196;52.302;10.572;2023-04-23T01:21:09;99734.03;;;19.98;43.85
40490;BME280;26196;52.302;10.572;2023-04-23T01:25:11;99727.00;;;19.97;44.00
40490;BME280;26196;52.302;10.572;2023-04-23T01:29:46;99735.97;;;19.96;44.02
40490;BME280;26196;52.302;10.572;2023-04-23T01:33:48;99730.75;;;19.94;43.94
40490;BME280;26196;52.302;10.572;2023-04-23T01:37:51;99733.41;;;19.94;44.14
40490;BME280;26196;52.302;10.572;2023-04-23T01:41:52;99723.88;;;19.92;44.30
40490;BME280;26196;52.302;10.572;2023-04-23T01:45:53;99721.94;;;19.94;44.23
40490;BME280;26196;52.302;10.572;2023-04-23T01:49:53;99729.19;;;19.92;44.27
40490;BME280;26196;52.302;10.572;2023-04-23T01:53:54;99724.75;;;19.92;44.10
40490;BME280;26196;52.302;10.572;2023-04-23T01:58:29;99722.94;;;19.93;44.22
40490;BME280;26196;52.302;10.572;2023-04-23T02:02:29;99723.03;;;19.91;44.05
40490;BME280;26196;52.302;10.572;2023-04-23T02:06:29;99724.13;;;19.88;44.57
40490;BME280;26196;52.302;10.572;2023-04-23T02:10:31;99726.91;;;19.87;44.45
40490;BME280;26196;52.302;10.572;2023-04-23T02:14:31;99730.28;;;19.89;44.31
40490;BME280;26196;52.302;10.572;2023-04-23T02:18:31;99729.44;;;19.88;44.17
40490;BME280;26196;52.302;10.572;2023-04-23T02:22:32;99729.56;;;19.87;44.08
40490;BME280;26196;52.302;10.572;2023-04-23T02:26:32;99729.81;;;19.84;44.24
40490;BME280;26196;52.302;10.572;2023-04-23T02:30:33;99733.19;;;19.86;44.28
40490;BME280;26196;52.302;10.572;2023-04-23T02:34:34;99734.16;;;19.85;44.50
40490;BME280;26196;52.302;10.572;2023-04-23T02:38:34;99736.06;;;19.83;44.54
40490;BME280;26196;52.302;10.572;2023-04-23T02:43:09;99736.91;;;19.83;44.51
40490;BME280;26196;52.302;10.572;2023-04-23T02:47:10;99735.13;;;19.84;44.34
40490;BME280;26196;52.302;10.572;2023-04-23T02:51:12;99750.31;;;19.82;44.44
40490;BME280;26196;52.302;10.572;2023-04-23T02:55:47;99745.84;;;19.82;44.54
40490;BME280;26196;52.302;10.572;2023-04-23T02:59:47;99748.50;;;19.82;44.66
40490;BME280;26196;52.302;10.572;2023-04-23T03:03:49;99748.75;;;19.79;44.58
40490;BME280;26196;52.302;10.572;2023-04-23T03:07:49;99751.41;;;19.79;44.60
40490;BME280;26196;52.302;10.572;2023-04-23T03:11:50;99740.06;;;19.77;44.60
40490;BME280;26196;52.302;10.572;2023-04-23T03:15:51;99748.88;;;19.78;44.82
40490;BME280;26196;52.302;10.572;2023-04-23T03:19:52;99751.75;;;19.75;44.76
40490;BME280;26196;52.302;10.572;2023-04-23T03:23:52;99750.91;;;19.74;44.95
40490;BME280;26196;52.302;10.572;2023-04-23T03:27:53;99759.13;;;19.71;45.20
40490;BME280;26196;52.302;10.572;2023-04-23T03:32:28;99751.03;;;19.73;44.99
40490;BME280;26196;52.302;10.572;2023-04-23T03:36:28;99759.25;;;19.70;45.08
40490;BME280;26196;52.302;10.572;2023-04-23T03:40:29;99755.09;;;19.65;45.30
40490;BME280;26196;52.302;10.572;2023-04-23T03:44:30;99762.88;;;19.69;45.24
40490;BME280;26196;52.302;10.572;2023-04-23T03:48:30;99766.06;;;19.61;45.96
40490;BME280;26196;52.302;10.572;2023-04-23T03:52:31;99766.78;;;19.63;45.87
40490;BME280;26196;52.302;10.572;2023-04-23T03:57:08;99768.50;;;19.64;45.78
40490;BME280;26196;52.302;10.572;2023-04-23T04:01:08;99772.97;;;19.63;45.68
40490;BME280;26196;52.302;10.572;2023-04-23T04:05:09;99766.91;;;19.61;45.96
40490;BME280;26196;52.302;10.572;2023-04-23T04:09:10;99772.56;;;19.57;46.11
40490;BME280;26196;52.302;10.572;2023-04-23T04:13:10;99773.41;;;19.57;46.17
40490;BME280;26196;52.302;10.572;2023-04-23T04:17:48;99787.91;;;19.53;46.38
40490;BME280;26196;52.302;10.572;2023-04-23T04:21:48;99786.19;;;19.52;46.33
40490;BME280;26196;52.302;10.572;2023-04-23T04:26:24;99788.84;;;19.52;46.50
40490;BME280;26196;52.302;10.572;2023-04-23T04:30:25;99793.19;;;19.53;46.56
40490;BME280;26196;52.302;10.572;2023-04-23T04:34:26;99799.59;;;19.51;46.15
40490;BME280;26196;52.302;10.572;2023-04-23T04:38:26;99801.41;;;19.50;46.44
40490;BME280;26196;52.302;10.572;2023-04-23T04:42:27;99799.31;;;19.42;46.57
40490;BME280;26196;52.302;10.572;2023-04-23T04:47:05;99811.63;;;19.43;46.41
40490;BME280;26196;52.302;10.572;2023-04-23T04:51:07;99805.91;;;19.37;46.76
40490;BME280;26196;52.302;10.572;2023-04-23T04:55:07;99809.31;;;19.39;46.43
40490;BME280;26196;52.302;10.572;2023-04-23T04:59:42;99811.22;;;19.37;46.53
40490;BME280;26196;52.302;10.572;2023-04-23T05:03:43;99820.06;;;19.37;46.33
40490;BME280;26196;52.302;10.572;2023-04-23T05:07:43;99831.50;;;19.38;46.24
40490;BME280;26196;52.302;10.572;2023-04-23T05:11:43;99822.06;;;19.34;46.60
40490;BME280;26196;52.302;10.572;2023-04-23T05:15:47;99824.72;;;19.34;46.43
40490;BME280;26196;52.302;10.572;2023-04-23T05:19:47;99831.09;;;19.31;46.23
40490;BME280;26196;52.302;10.572;2023-04-23T05:23:48;99835.56;;;19.31;46.67
40490;BME280;26196;52.302;10.572;2023-04-23T05:27:48;99833.16;;;19.28;46.30
40490;BME280;26196;52.302;10.572;2023-04-23T05:31:49;99840.28;;;19.27;46.23
40490;BME280;26196;52.302;10.572;2023-04-23T05:35:49;99842.28;;;19.23;46.50
40490;BME280;26196;52.302;10.572;2023-04-23T05:39:50;99843.50;;;19.19;46.63
40490;BME280;26196;52.302;10.572;2023-04-23T05:44:24;99847.81;;;19.20;46.64
40490;BME280;26196;52.302;10.572;2023-04-23T05:48:24;99850.47;;;19.20;46.98
40490;BME280;26196;52.302;10.572;2023-04-23T05:52:25;99849.97;;;19.15;46.79
40490;BME280;26196;52.302;10.572;2023-04-23T05:56:25;99851.16;;;19.11;47.05
40490;BME280;26196;52.302;10.572;2023-04-23T06:00:26;99859.84;;;19.13;47.19
40490;BME280;26196;52.302;10.572;2023-04-23T06:05:00;99868.78;;;19.12;46.78
40490;BME280;26196;52.302;10.572;2023-04-23T06:09:01;99876.72;;;19.12;46.79
40490;BME280;26196;52.302;10.572;2023-04-23T06:13:01;99872.59;;;19.08;47.29
40490;BME280;26196;52.302;10.572;2023-04-23T06:17:02;99858.38;;;19.09;47.07
40490;BME280;26196;52.302;10.572;2023-04-23T06:21:39;99867.28;;;19.08;47.22
40490;BME280;26196;52.302;10.572;2023-04-23T06:25:40;99876.44;;;19.04;47.32
40490;BME280;26196;52.302;10.572;2023-04-23T06:29:40;99872.06;;;19.03;47.37
40490;BME280;26196;52.302;10.572;2023-04-23T06:33:40;99883.03;;;18.98;47.58
40490;BME280;26196;52.302;10.572;2023-04-23T06:38:18;99876.91;;;18.98;47.89
40490;BME280;26196;52.302;10.572;2023-04-23T06:42:20;99877.75;;;18.98;48.08
40490;BME280;26196;52.302;10.572;2023-04-23T06:46:20;99878.06;;;18.94;48.04
40490;BME280;26196;52.302;10.572;2023-04-23T06:50:21;99893.00;;;18.95;48.04
40490;BME280;26196;52.302;10.572;2023-04-23T06:54:21;99893.00;;;18.95;48.13
40490;BME280;26196;52.302;10.572;2023-04-23T06:58:55;99881.56;;;18.94;48.01
40490;BME280;26196;52.302;10.572;2023-04-23T07:02:56;99894.72;;;18.96;47.97
40490;BME280;26196;52.302;10.572;2023-04-23T07:07:33;99888.66;;;18.94;48.13
40490;BME280;26196;52.302;10.572;2023-04-23T07:11:36;99888.16;;;18.89;48.05
40490;BME280;26196;52.302;10.572;2023-04-23T07:20:48;99881.03;;;18.89;47.90
40490;BME280;26196;52.302;10.572;2023-04-23T07:24:48;99883.06;;;18.86;48.26
40490;BME280;26196;52.302;10.572;2023-04-23T07:28:48;99889.97;;;18.88;48.13
40490;BME280;26196;52.302;10.572;2023-04-23T07:33:24;99880.28;;;18.87;48.61
40490;BME280;26196;52.302;10.572;2023-04-23T07:37:24;99869.69;;;18.87;48.25
40490;BME280;26196;52.302;10.572;2023-04-23T07:41:25;99877.53;;;18.89;48.37
40490;BME280;26196;52.302;10.572;2023-04-23T07:45:59;99871.41;;;18.88;48.38
40490;BME280;26196;52.302;10.572;2023-04-23T07:54:37;99859.94;;;18.88;48.50
40490;BME280;26196;52.302;10.572;2023-04-23T07:59:11;99862.47;;;18.89;48.78
40490;BME280;26196;52.302;10.572;2023-04-23T08:07:49;99856.56;;;18.86;48.91
40490;BME280;26196;52.302;10.572;2023-04-23T08:11:49;99868.75;;;18.88;48.54
40490;BME280;26196;52.302;10.572;2023-04-23T08:15:50;99865.88;;;18.91;48.74
40490;BME280;26196;52.302;10.572;2023-04-23T08:19:51;99865.03;;;18.91;48.70
40490;BME280;26196;52.302;10.572;2023-04-23T08:23:51;99859.94;;;18.88;48.87
40490;BME280;26196;52.302;10.572;2023-04-23T08:27:52;99857.16;;;18.89;49.67
40490;BME280;26196;52.302;10.572;2023-04-23T08:32:27;99853.78;;;18.87;50.08
40490;BME280;26196;52.302;10.572;2023-04-23T08:41:26;99848.28;;;18.90;49.41
40490;BME280;26196;52.302;10.572;2023-04-23T08:46:01;99849.97;;;18.91;49.65
40490;BME280;26196;52.302;10.572;2023-04-23T08:50:37;99845.09;;;18.85;49.93
40490;BME280;26196;52.302;10.572;2023-04-23T08:55:12;99850.81;;;18.92;49.93
40490;BME280;26196;52.302;10.572;2023-04-23T08:59:48;99844.56;;;18.93;50.75
40490;BME280;26196;52.302;10.572;2023-04-23T09:04:23;99841.91;;;18.93;50.10
40490;BME280;26196;52.302;10.572;2023-04-23T09:08:24;99841.53;;;18.97;49.83
40490;BME280;26196;52.302;10.572;2023-04-23T09:12:59;99845.06;;;18.98;50.13
40490;BME280;26196;52.302;10.572;2023-04-23T09:22:10;99848.34;;;19.01;49.67
40490;BME280;26196;52.302;10.572;2023-04-23T09:26:19;99844.72;;;19.02;49.88
40490;BME280;26196;52.302;10.572;2023-04-23T09:30:23;99849.91;;;19.04;50.19
40490;BME280;26196;52.302;10.572;2023-04-23T09:35:03;99842.91;;;19.03;50.10
40490;BME280;26196;52.302;10.572;2023-04-23T09:39:37;99841.00;;;19.05;50.13
40490;BME280;26196;52.302;10.572;2023-04-23T09:58:04;99838.00;;;19.10;50.68
40490;BME280;26196;52.302;10.572;2023-04-23T10:02:38;99829.94;;;19.11;50.78
40490;BME280;26196;52.302;10.572;2023-04-23T10:07:13;99828.13;;;19.12;51.24
40490;BME280;26196;52.302;10.572;2023-04-23T10:11:51;99827.06;;;19.14;51.15
40490;BME280;26196;52.302;10.572;2023-04-23T10:16:26;99833.13;;;19.16;50.94
40490;BME280;26196;52.302;10.572;2023-04-23T10:21:03;99827.91;;;19.15;50.54
40490;BME280;26196;52.302;10.572;2023-04-23T10:25:39;99824.09;;;19.19;50.35
40490;BME280;26196;52.302;10.572;2023-04-23T10:34:38;99823.72;;;19.23;49.98
40490;BME280;26196;52.302;10.572;2023-04-23T10:39:12;99825.66;;;19.21;50.83
40490;BME280;26196;52.302;10.572;2023-04-23T10:43:14;99814.81;;;19.24;50.51
40490;BME280;26196;52.302;10.572;2023-04-23T10:47:52;99805.88;;;19.26;50.56
40490;BME280;26196;52.302;10.572;2023-04-23T10:52:27;99812.91;;;19.27;48.74
40490;BME280;26196;52.302;10.572;2023-04-23T11:01:03;99791.94;;;19.35;48.60
40490;BME280;26196;52.302;10.572;2023-04-23T11:05:07;99779.84;;;19.31;49.07
40490;BME280;26196;52.302;10.572;2023-04-23T11:09:40;99805.06;;;19.36;49.23
40490;BME280;26196;52.302;10.572;2023-04-23T11:13:51;99805.91;;;19.37;49.33
40490;BME280;26196;52.302;10.572;2023-04-23T11:26:29;99795.81;;;19.42;49.21
40490;BME280;26196;52.302;10.572;2023-04-23T11:31:03;99808.00;;;19.44;49.35
40490;BME280;26196;52.302;10.572;2023-04-23T11:35:05;99797.28;;;19.46;49.47
40490;BME280;26196;52.302;10.572;2023-04-23T11:39:06;99801.63;;;19.47;49.47
40490;BME280;26196;52.302;10.572;2023-04-23T11:43:43;99792.56;;;19.50;48.56
40490;BME280;26196;52.302;10.572;2023-04-23T11:47:44;99782.09;;;19.48;48.33
40490;BME280;26196;52.302;10.572;2023-04-23T11:51:46;99783.53;;;19.52;47.98
40490;BME280;26196;52.302;10.572;2023-04-23T11:56:21;99776.53;;;19.51;48.16
40490;BME280;26196;52.302;10.572;2023-04-23T12:00:57;99776.31;;;19.54;48.68
40490;BME280;26196;52.302;10.572;2023-04-23T12:05:04;99772.47;;;19.58;48.90
40490;BME280;26196;52.302;10.572;2023-04-23T12:09:05;99771.72;;;19.56;48.58
40490;BME280;26196;52.302;10.572;2023-04-23T12:13:43;99767.88;;;19.60;49.23
40490;BME280;26196;52.302;10.572;2023-04-23T12:18:18;99775.81;;;19.60;47.57
40490;BME280;26196;52.302;10.572;2023-04-23T12:22:25;99774.88;;;19.61;48.18
40490;BME280;26196;52.302;10.572;2023-04-23T12:26:26;99775.63;;;19.63;48.82
40490;BME280;26196;52.302;10.572;2023-04-23T12:40:15;99755.84;;;19.67;48.02
40490;BME280;26196;52.302;10.572;2023-04-23T12:44:16;99752.09;;;19.70;47.85
40490;BME280;26196;52.302;10.572;2023-04-23T12:48:53;99745.97;;;19.70;48.15
40490;BME280;26196;52.302;10.572;2023-04-23T12:53:28;99743.06;;;19.73;47.97
40490;BME280;26196;52.302;10.572;2023-04-23T12:58:05;99738.59;;;19.73;48.37
40490;BME280;26196;52.302;10.572;2023-04-23T13:02:43;99741.13;;;19.75;47.75
40490;BME280;26196;52.302;10.572;2023-04-23T13:07:20;99730.28;;;19.78;48.10
40490;BME280;26196;52.302;10.572;2023-04-23T13:11:21;99728.47;;;19.78;47.81
40490;BME280;26196;52.302;10.572;2023-04-23T13:15:56;99716.75;;;19.81;47.57
40490;BME280;26196;52.302;10.572;2023-04-23T13:20:33;99709.66;;;19.81;47.93
40490;BME280;26196;52.302;10.572;2023-04-23T13:24:34;99719.31;;;19.82;48.00
40490;BME280;26196;52.302;10.572;2023-04-23T13:28:35;99728.84;;;19.85;47.58
40490;BME280;26196;52.302;10.572;2023-04-23T13:33:12;99723.53;;;19.85;47.75
40490;BME280;26196;52.302;10.572;2023-04-23T13:37:47;99720.03;;;19.84;48.19
40490;BME280;26196;52.302;10.572;2023-04-23T13:41:48;99713.63;;;19.87;47.67
40490;BME280;26196;52.302;10.572;2023-04-23T13:46:25;99708.31;;;19.87;47.72
40490;BME280;26196;52.302;10.572;2023-04-23T13:55:03;99693.09;;;19.89;47.56
40490;BME280;26196;52.302;10.572;2023-04-23T13:59:38;99685.84;;;19.91;47.31
40490;BME280;26196;52.302;10.572;2023-04-23T14:03:38;99661.84;;;19.93;47.54
40490;BME280;26196;52.302;10.572;2023-04-23T14:08:16;99651.06;;;19.94;47.45
40490;BME280;26196;52.302;10.572;2023-04-23T14:12:16;99646.63;;;19.95;46.81
40490;BME280;26196;52.302;10.572;2023-04-23T14:16:51;99651.06;;;19.94;47.02
40490;BME280;26196;52.302;10.572;2023-04-23T14:21:29;99641.19;;;19.96;47.27
40490;BME280;26196;52.302;10.572;2023-04-23T14:25:34;99626.94;;;19.97;47.31
40490;BME280;26196;52.302;10.572;2023-04-23T14:34:32;99625.88;;;20.00;47.43
40490;BME280;26196;52.302;10.572;2023-04-23T14:38:35;99623.91;;;20.02;47.21
40490;BME280;26196;52.302;10.572;2023-04-23T14:43:10;99622.22;;;20.01;47.25
40490;BME280;26196;52.302;10.572;2023-04-23T14:52:23;99619.47;;;20.02;47.31
40490;BME280;26196;52.302;10.572;2023-04-23T14:56:58;99612.31;;;20.03;47.37
40490;BME280;26196;52.302;10.572;2023-04-23T15:01:35;99616.56;;;20.05;47.66
40490;BME280;26196;52.302;10.572;2023-04-23T15:06:13;99602.44;;;20.05;47.51
40490;BME280;26196;52.302;10.572;2023-04-23T15:10:47;99605.09;;;20.05;47.68
40490;BME280;26196;52.302;10.572;2023-04-23T15:23:55;99588.28;;;20.04;47.39
40490;BME280;26196;52.302;10.572;2023-04-23T15:28:30;99595.16;;;20.07;47.39
40490;BME280;26196;52.302;10.572;2023-04-23T15:33:07;99588.06;;;20.07;47.15
40490;BME280;26196;52.302;10.572;2023-04-23T15:37:42;99593.38;;;20.07;47.35
40490;BME280;26196;52.302;10.572;2023-04-23T15:42:19;99604.00;;;20.07;47.29
40490;BME280;26196;52.302;10.572;2023-04-23T15:46:57;99602.28;;;20.06;47.48
40490;BME280;26196;52.302;10.572;2023-04-23T15:56:06;99596.13;;;20.06;46.89
40490;BME280;26196;52.302;10.572;2023-04-23T16:05:21;99567.75;;;20.06;46.59
40490;BME280;26196;52.302;10.572;2023-04-23T16:09:21;99565.25;;;20.05;47.34
40490;BME280;26196;52.302;10.572;2023-04-23T16:13:23;99555.31;;;20.07;47.82
40490;BME280;26196;52.302;10.572;2023-04-23T16:22:20;99536.13;;;20.03;47.93
40490;BME280;26196;52.302;10.572;2023-04-23T16:26:58;99542.16;;;20.05;48.05
40490;BME280;26196;52.302;10.572;2023-04-23T16:30:58;99543.00;;;20.06;47.79
40490;BME280;26196;52.302;10.572;2023-04-23T16:40:13;99538.69;;;20.05;47.66
40490;BME280;26196;52.302;10.572;2023-04-23T16:44:48;99529.97;;;20.03;48.91
40490;BME280;26196;52.302;10.572;2023-04-23T16:49:23;99507.81;;;19.93;48.51
40490;BME280;26196;52.302;10.572;2023-04-23T16:53:58;99509.81;;;20.00;47.95
40490;BME280;26196;52.302;10.572;2023-04-23T16:58:35;99502.81;;;19.99;49.38
40490;BME280;26196;52.302;10.572;2023-04-23T17:03:13;99510.78;;;19.99;49.99
40490;BME280;26196;52.302;10.572;2023-04-23T17:07:49;99514.41;;;19.98;49.10
40490;BME280;26196;52.302;10.572;2023-04-23T17:11:50;99506.56;;;19.97;50.63
40490;BME280;26196;52.302;10.572;2023-04-23T17:15:51;99493.44;;;19.95;49.15
40490;BME280;26196;52.302;10.572;2023-04-23T17:19:51;99482.66;;;19.97;47.92
40490;BME280;26196;52.302;10.572;2023-04-23T17:23:52;99477.59;;;19.94;48.57
40490;BME280;26196;52.302;10.572;2023-04-23T17:27:52;99470.63;;;19.93;47.93
40490;BME280;26196;52.302;10.572;2023-04-23T17:32:27;99476.88;;;19.92;48.52
40490;BME280;26196;52.302;10.572;2023-04-23T17:41:39;99460.25;;;19.89;47.35
40490;BME280;26196;52.302;10.572;2023-04-23T17:46:17;99467.34;;;19.89;47.15
40490;BME280;26196;52.302;10.572;2023-04-23T17:50:54;99462.75;;;19.91;49.39
40490;BME280;26196;52.302;10.572;2023-04-23T17:55:28;99456.72;;;19.89;49.69
40490;BME280;26196;52.302;10.572;2023-04-23T18:00:04;99451.56;;;19.87;50.12
40490;BME280;26196;52.302;10.572;2023-04-23T18:09:19;99448.06;;;19.87;50.07
40490;BME280;26196;52.302;10.572;2023-04-23T18:13:57;99444.53;;;19.86;49.96
40490;BME280;26196;52.302;10.572;2023-04-23T18:27:30;99433.34;;;19.83;50.01
40490;BME280;26196;52.302;10.572;2023-04-23T18:32:04;99433.34;;;19.83;50.08
40490;BME280;26196;52.302;10.572;2023-04-23T18:36:32;99435.16;;;19.82;50.29
40490;BME280;26196;52.302;10.572;2023-04-23T18:40:33;99431.78;;;19.80;49.74
40490;BME280;26196;52.302;10.572;2023-04-23T18:45:08;99429.13;;;19.80;49.46
40490;BME280;26196;52.302;10.572;2023-04-23T19:04:00;99406.97;;;19.70;49.28
40490;BME280;26196;52.302;10.572;2023-04-23T19:08:35;99401.81;;;19.69;49.02
40490;BME280;26196;52.302;10.572;2023-04-23T19:13:09;99405.88;;;19.73;48.41
40490;BME280;26196;52.302;10.572;2023-04-23T19:17:47;99399.84;;;19.71;49.08
40490;BME280;26196;52.302;10.572;2023-04-23T19:22:24;99408.91;;;19.68;48.74
40490;BME280;26196;52.302;10.572;2023-04-23T19:27:01;99411.69;;;19.66;49.70
40490;BME280;26196;52.302;10.572;2023-04-23T19:36:13;99396.13;;;19.62;49.46
40490;BME280;26196;52.302;10.572;2023-04-23T19:40:50;99389.25;;;19.59;49.16
40490;BME280;26196;52.302;10.572;2023-04-23T19:50:03;99384.78;;;19.60;48.71
40490;BME280;26196;52.302;10.572;2023-04-23T19:54:39;99384.66;;;19.61;48.91
40490;BME280;26196;52.302;10.572;2023-04-23T19:59:16;99378.63;;;19.59;47.83
40490;BME280;26196;52.302;10.572;2023-04-23T20:03:50;99370.66;;;19.59;47.62
40490;BME280;26196;52.302;10.572;2023-04-23T20:12:49;99345.59;;;19.52;48.06
40490;BME280;26196;52.302;10.572;2023-04-23T20:17:26;99350.22;;;19.50;48.81
40490;BME280;26196;52.302;10.572;2023-04-23T20:22:03;99343.09;;;19.51;47.86
40490;BME280;26196;52.302;10.572;2023-04-23T20:26:03;99338.50;;;19.53;47.60
40490;BME280;26196;52.302;10.572;2023-04-23T20:30:37;99339.44;;;19.52;47.21
40490;BME280;26196;52.302;10.572;2023-04-23T20:34:38;99341.38;;;19.50;47.47
40490;BME280;26196;52.302;10.572;2023-04-23T20:39:15;99332.59;;;19.49;46.84
40490;BME280;26196;52.302;10.572;2023-04-23T20:43:51;99329.22;;;19.47;47.64
40490;BME280;26196;52.302;10.572;2023-04-23T20:48:27;99315.38;;;19.43;46.55
40490;BME280;26196;52.302;10.572;2023-04-23T20:52:28;99309.22;;;19.43;46.28
40490;BME280;26196;52.302;10.572;2023-04-23T20:56:29;99305.13;;;19.39;46.60
40490;BME280;26196;52.302;10.572;2023-04-23T21:00:29;99291.03;;;19.38;46.54
40490;BME280;26196;52.302;10.572;2023-04-23T21:04:30;99283.44;;;19.34;46.50
40490;BME280;26196;52.302;10.572;2023-04-23T21:08:31;99278.28;;;19.32;47.08
40490;BME280;26196;52.302;10.572;2023-04-23T21:13:06;99277.66;;;19.29;47.45
40490;BME280;26196;52.302;10.572;2023-04-23T21:17:07;99269.03;;;19.27;47.41
40490;BME280;26196;52.302;10.572;2023-04-23T21:21:08;99264.94;;;19.22;47.99
40490;BME280;26196;52.302;10.572;2023-04-23T21:25:08;99266.84;;;19.20;47.79
40490;BME280;26196;52.302;10.572;2023-04-23T21:29:46;99271.31;;;19.20;46.89
40490;BME280;26196;52.302;10.572;2023-04-23T21:33:47;99260.13;;;19.16;46.33
40490;BME280;26196;52.302;10.572;2023-04-23T21:37:47;99258.19;;;19.18;45.78
40490;BME280;26196;52.302;10.572;2023-04-23T21:42:21;99249.91;;;19.12;45.10
40490;BME280;26196;52.302;10.572;2023-04-23T21:46:22;99244.00;;;19.08;45.14
40490;BME280;26196;52.302;10.572;2023-04-23T21:50:57;99250.66;;;19.02;45.20
40490;BME280;26196;52.302;10.572;2023-04-23T21:54:57;99263.31;;;18.99;44.65
40490;BME280;26196;52.302;10.572;2023-04-23T21:58:57;99285.75;;;18.95;45.21
40490;BME280;26196;52.302;10.572;2023-04-23T22:02:58;99313.25;;;18.94;44.17
40490;BME280;26196;52.302;10.572;2023-04-23T22:06:58;99306.13;;;18.94;44.17
40490;BME280;26196;52.302;10.572;2023-04-23T22:11:35;99299.34;;;19.01;44.18
40490;BME280;26196;52.302;10.572;2023-04-23T22:15:36;99297.53;;;19.02;44.22
40490;BME280;26196;52.302;10.572;2023-04-23T22:19:37;99295.03;;;19.00;43.91
40490;BME280;26196;52.302;10.572;2023-04-23T22:23:37;99299.22;;;19.03;43.77
40490;BME280;26196;52.302;10.572;2023-04-23T22:27:39;99301.88;;;19.03;44.11
40490;BME280;26196;52.302;10.572;2023-04-23T22:31:40;99302.38;;;18.97;44.29
40490;BME280;26196;52.302;10.572;2023-04-23T22:36:17;99278.31;;;18.89;43.89
40490;BME280;26196;52.302;10.572;2023-04-23T22:40:18;99299.00;;;18.95;44.25
40490;BME280;26196;52.302;10.572;2023-04-23T22:44:52;99298.31;;;18.93;45.64
40490;BME280;26196;52.302;10.572;2023-04-23T22:48:53;99281.69;;;18.91;46.69
40490;BME280;26196;52.302;10.572;2023-04-23T22:52:53;99283.34;;;18.92;45.66
40490;BME280;26196;52.302;10.572;2023-04-23T22:57:27;99275.66;;;18.89;44.63
40490;BME280;26196;52.302;10.572;2023-04-23T23:01:28;99266.03;;;18.88;45.37
40490;BME280;26196;52.302;10.572;2023-04-23T23:06:03;99274.66;;;18.90;44.95
40490;BME280;26196;52.302;10.572;2023-04-23T23:10:03;99279.13;;;18.89;44.65
40490;BME280;26196;52.302;10.572;2023-04-23T23:14:07;99276.63;;;18.88;45.46
40490;BME280;26196;52.302;10.572;2023-04-23T23:18:42;99287.22;;;18.88;46.61
40490;BME280;26196;52.302;10.572;2023-04-23T23:22:42;99277.72;;;18.85;46.34
40490;BME280;26196;52.302;10.572;2023-04-23T23:27:16;99265.41;;;18.84;45.73
40490;BME280;26196;52.302;10.572;2023-04-23T23:31:17;99251.56;;;18.80;46.75
40490;BME280;26196;52.302;10.572;2023-04-23T23:35:18;99242.63;;;18.82;46.60
40490;BME280;26196;52.302;10.572;2023-04-23T23:39:55;99247.22;;;18.79;45.08
40490;BME280;26196;52.302;10.572;2023-04-23T23:43:55;99244.00;;;18.76;44.63
40490;BME280;26196;52.302;10.572;2023-04-23T23:47:56;99247.47;;;18.76;44.93
40490;BME280;26196;52.302;10.572;2023-04-23T23:52:31;99249.41;;;18.74;46.23
40490;BME280;26196;52.302;10.572;2023-04-23T23:56:31;99249.41;;;18.74;46.14
